Data for 03/16/2016

Time Sea-Level Adjusted Pressure Absolute Pressure Temperature Relative Humidity Dew Point   
(mb) (inHg) (mb) (inHg) (C) (F) (%) (C) (F)
00:05 1018 30.06 847 25.01 -3.3 26 62 -9.6 14.7
00:10 1018 30.06 847 25.01 -3.5 25.8 63 -9.6 14.8
00:15 1018 30.06 847 25.01 -3.6 25.5 64 -9.6 14.8
00:20 1018 30.06 848 25.04 -3.6 25.5 62 -9.8 14.4
00:25 1018 30.06 848 25.04 -3.4 26 59 -10.2 13.6
00:30 1018 30.06 848 25.04 -3.1 26.3 57 -10.5 13.1
00:35 1018 30.06 848 25.04 -2.9 26.7 59 -9.8 14.3
00:40 1018 30.06 848 25.04 -2.9 26.8 62 -9.3 15.3
00:45 1018 30.06 848 25.04 -2.9 26.8 64 -8.8 16.2
00:50 1018 30.06 848 25.04 -3 26.6 65 -8.7 16.3
00:55 1019 30.09 848 25.04 -3.1 26.4 62 -9.3 15.2
01:00 1018 30.06 848 25.04 -3.1 26.4 59 -10 13.9
01:05 1018 30.06 848 25.04 -3 26.6 59 -10 14
01:10 1019 30.09 848 25.04 -2.9 26.7 58 -10.2 13.7
01:15 1019 30.09 848 25.04 -2.9 26.8 57 -10.3 13.4
01:20 1018 30.06 848 25.04 -2.9 26.8 56 -10.5 13.2
01:25 1018 30.06 848 25.04 -2.9 26.8 55 -10.7 12.7
01:30 1019 30.09 848 25.04 -2.8 26.9 55 -10.8 12.6
01:35 1018 30.06 848 25.04 -2.7 27.1 53 -11.1 12
01:40 1018 30.06 848 25.04 -2.7 27.1 54 -10.9 12.4
01:45 1019 30.09 848 25.04 -2.8 27 54 -10.7 12.7
01:50 1019 30.09 848 25.04 -2.8 26.9 54 -11 12.3
01:55 1019 30.09 848 25.04 -2.8 26.9 53 -11.2 11.8
02:00 1019 30.09 848 25.04 -2.8 26.9 51 -11.6 11.2
02:05 1019 30.09 848 25.04 -2.8 27 52 -11.3 11.6
02:10 1019 30.09 848 25.04 -2.8 27 53 -11.2 11.9
02:15 1019 30.09 848 25.04 -2.8 27 53 -11.1 12
02:20 1019 30.09 848 25.04 -2.7 27.1 52 -11.4 11.6
02:25 1019 30.09 848 25.04 -2.7 27.1 51 -11.5 11.3
02:30 1019 30.09 848 25.04 -2.7 27.1 51 -11.6 11.2
02:35 1019 30.09 848 25.04 -2.6 27.3 51 -11.5 11.4
02:40 1019 30.09 848 25.04 -2.7 27.2 51 -11.5 11.2
02:45 1019 30.09 848 25.04 -2.7 27.1 51 -11.4 11.4
02:50 1019 30.09 848 25.04 -2.8 27 52 -11.3 11.7
02:55 1019 30.09 848 25.04 -2.8 26.9 52 -11.3 11.7
03:00 1019 30.09 848 25.04 -2.9 26.9 51 -11.6 11.1
03:05 1019 30.09 848 25.04 -2.9 26.8 50 -11.8 10.8
03:10 1019 30.09 848 25.04 -2.9 26.8 50 -12 10.5
03:15 1019 30.09 848 25.04 -2.9 26.7 52 -11.4 11.5
03:20 1019 30.09 848 25.04 -3.1 26.4 54 -11.2 11.8
03:25 1019 30.09 848 25.04 -3.2 26.3 54 -11.3 11.7
03:30 1019 30.09 848 25.04 -3.1 26.3 53 -11.3 11.6
03:35 1019 30.09 848 25.04 -3.2 26.3 53 -11.4 11.5
03:40 1019 30.09 848 25.04 -3.1 26.3 53 -11.4 11.4
03:45 1019 30.09 848 25.04 -3.1 26.3 54 -11.3 11.7
03:50 1019 30.09 848 25.04 -3.2 26.3 53 -11.5 11.3
03:55 1019 30.09 848 25.04 -3.2 26.2 54 -11.2 11.8
04:00 1019 30.09 848 25.04 -3.3 26.1 54 -11.3 11.7
04:05 1019 30.09 848 25.04 -3.3 26 55 -11.2 11.9
04:10 1019 30.09 848 25.04 -3.3 26.1 54 -11.3 11.7
04:15 1019 30.09 848 25.04 -3.3 26.1 54 -11.3 11.7
04:20 1019 30.09 848 25.04 -3.3 26.1 53 -11.6 11.2
04:25 1019 30.09 848 25.04 -3.2 26.3 53 -11.6 11.2
04:30 1019 30.09 848 25.04 -3.1 26.4 53 -11.4 11.5
04:35 1019 30.09 848 25.04 -3.2 26.3 53 -11.4 11.5
04:40 1019 30.09 848 25.04 -3.2 26.2 54 -11.3 11.7
04:45 1019 30.09 848 25.04 -3.2 26.2 54 -11.3 11.6
04:50 1019 30.09 848 25.04 -3.3 26.1 54 -11.4 11.5
04:55 1019 30.09 848 25.04 -3.3 26 54 -11.3 11.7
05:00 1019 30.09 848 25.04 -3.4 25.9 55 -11.2 11.8
05:05 1019 30.09 848 25.04 -3.4 25.9 54 -11.3 11.6
05:10 1019 30.09 848 25.04 -3.3 26 53 -11.7 10.9
05:15 1019 30.09 848 25.04 -3.3 26.1 52 -11.7 10.9
05:20 1019 30.09 849 25.07 -3.3 26.1 53 -11.7 11
05:25 1019 30.09 849 25.07 -3.3 26.1 52 -11.7 10.9
05:30 1019 30.09 849 25.07 -3.3 26.1 52 -11.8 10.7
05:35 1019 30.09 849 25.07 -3.3 26.1 52 -11.7 10.9
05:40 1020 30.12 849 25.07 -3.2 26.2 51 -11.9 10.6
05:45 1020 30.12 849 25.07 -3.2 26.2 52 -11.7 11
05:50 1020 30.12 849 25.07 -3.3 26.1 54 -11.4 11.4
05:55 1020 30.12 849 25.07 -3.4 25.9 53 -11.7 11
06:00 1020 30.12 849 25.07 -3.3 26 51 -12.2 10.1
06:05 1020 30.12 849 25.07 -3.2 26.3 50 -12.2 10.1
06:10 1020 30.12 849 25.07 -3.2 26.3 50 -12.2 10
06:15 1020 30.12 849 25.07 -3.1 26.4 50 -12.2 10
06:20 1020 30.12 849 25.07 -3.1 26.5 50 -12.2 10
06:25 1020 30.12 849 25.07 -3.1 26.5 48 -12.5 9.4
06:30 1020 30.12 849 25.07 -3 26.5 49 -12.2 10
06:35 1020 30.12 849 25.07 -3 26.6 49 -12.4 9.7
06:40 1020 30.12 849 25.07 -3 26.5 49 -12.4 9.7
06:45 1020 30.12 849 25.07 -3 26.6 48 -12.5 9.5
06:50 1020 30.12 849 25.07 -3 26.7 48 -12.6 9.3
06:55 1020 30.12 849 25.07 -2.9 26.8 48 -12.5 9.5
07:00 1020 30.12 849 25.07 -2.8 27 48 -12.4 9.7
07:05 1020 30.12 849 25.07 -2.8 27 49 -12.1 10.2
07:10 1020 30.12 849 25.07 -2.9 26.8 49 -12.1 10.2
07:15 1020 30.12 849 25.07 -3 26.7 49 -12.1 10.2
07:20 1020 30.12 849 25.07 -3 26.6 50 -12.1 10.2
07:25 1020 30.12 849 25.07 -3 26.6 49 -12.2 10
07:30 1020 30.12 849 25.07 -2.9 26.7 49 -12.1 10.1
07:35 1020 30.12 849 25.07 -2.9 26.8 49 -12.3 9.9
07:40 1020 30.12 849 25.07 -2.8 26.9 48 -12.4 9.6
07:45 1020 30.12 849 25.07 -2.8 27 48 -12.4 9.7
07:50 1020 30.12 849 25.07 -2.7 27.2 46 -12.6 9.3
07:55 1020 30.12 849 25.07 -2.5 27.5 46 -12.7 9.2
08:00 1020 30.12 849 25.07 -2.5 27.6 45 -12.9 8.7
08:05 1020 30.12 849 25.07 -2.4 27.6 44 -13 8.6
08:10 1020 30.12 849 25.07 -2.3 27.8 43 -13.2 8.3
08:15 1020 30.12 849 25.07 -2.2 28 42 -13.4 7.9
08:20 1020 30.12 849 25.07 -2.1 28.1 43 -13.1 8.4
08:25 1020 30.12 849 25.07 -2.1 28.2 42 -13.2 8.2
08:30 1020 30.12 849 25.07 -2 28.4 41 -13.6 7.5
08:35 1020 30.12 849 25.07 -1.9 28.6 40 -13.7 7.3
08:40 1020 30.12 849 25.07 -1.7 28.9 41 -13.4 7.9
08:45 1020 30.12 849 25.07 -1.6 29.1 39 -13.7 7.3
08:50 1020 30.12 849 25.07 -1.6 29.1 39 -13.8 7.1
08:55 1020 30.12 849 25.07 -1.5 29.3 40 -13.6 7.6
09:00 1020 30.12 849 25.07 -1.3 29.7 38 -13.8 7.2
09:05 1020 30.12 849 25.07 -1.3 29.6 39 -13.6 7.5
09:10 1020 30.12 849 25.07 -1.3 29.7 37 -14.2 6.5
09:15 1020 30.12 849 25.07 -1.2 29.8 37 -14.1 6.7
09:20 1020 30.12 849 25.07 -1 30.3 37 -14.1 6.7
09:25 1020 30.12 849 25.07 -0.7 30.8 34 -14.7 5.6
09:30 1020 30.12 849 25.07 -0.4 31.3 35 -14.1 6.6
09:35 1020 30.12 849 25.07 -0.5 31.1 36 -13.8 7.2
09:40 1020 30.12 849 25.07 -0.3 31.5 32 -14.9 5.2
09:45 1020 30.12 849 25.07 -0.1 31.9 32 -14.8 5.3
09:50 1020 30.12 849 25.07 0.1 32.1 32 -14.8 5.4
09:55 1020 30.12 849 25.07 0.2 32.4 31 -14.9 5.1
10:00 1020 30.12 849 25.07 0.4 32.7 32 -14.4 6.1
10:05 1020 30.12 849 25.07 0.7 33.3 31 -14.8 5.4
10:10 1020 30.12 849 25.07 1.1 34 30 -14.5 5.9
10:15 1020 30.12 849 25.07 1.4 34.5 30 -14.6 5.7
10:20 1020 30.12 849 25.07 1.6 34.9 29 -14.7 5.6
10:25 1020 30.12 849 25.07 0.9 33.7 29 -15 5
10:30 1020 30.12 849 25.07 0.9 33.5 31 -14.6 5.7
10:35 1020 30.12 849 25.07 0.6 33.1 31 -14.9 5.3
10:40 1020 30.12 849 25.07 0.6 33.1 31 -14.8 5.4
10:45 1020 30.12 849 25.07 0.6 33.1 31 -14.9 5.2
10:50 1020 30.12 849 25.07 0.8 33.5 29 -15.4 4.4
10:55 1020 30.12 849 25.07 0.8 33.4 31 -14.6 5.7
11:00 1020 30.12 849 25.07 1.3 34.4 29 -15 5
11:05 1020 30.12 849 25.07 1.4 34.4 29 -14.8 5.3
11:10 1020 30.12 849 25.07 1.4 34.4 29 -14.9 5.1
11:15 1020 30.12 849 25.07 1.3 34.3 30 -14.3 6.2
11:20 1020 30.12 849 25.07 1.6 34.9 28 -15.2 4.7
11:25 1020 30.12 849 25.07 1.4 34.5 29 -14.8 5.4
11:30 1020 30.12 849 25.07 1.4 34.4 29 -15 5
11:35 1020 30.12 849 25.07 1.9 35.4 28 -14.9 5.2
11:40 1019 30.09 849 25.07 1.8 35.2 28 -15 5
11:45 1019 30.09 849 25.07 1.8 35.2 28 -14.7 5.5
11:50 1019 30.09 849 25.07 1.6 35 28 -15 4.9
11:55 1019 30.09 849 25.07 1.5 34.7 28 -15.1 4.8
12:00 1019 30.09 848 25.04 1.4 34.4 28 -15.5 4.2
12:05 1019 30.09 848 25.04 1.1 34 29 -15.2 4.7
12:10 1019 30.09 848 25.04 1.6 34.9 28 -14.9 5.2
12:15 1019 30.09 848 25.04 1.5 34.7 29 -14.6 5.7
12:20 1019 30.09 848 25.04 1.7 35 28 -14.9 5.2
12:25 1019 30.09 848 25.04 1.4 34.6 29 -14.7 5.5
12:30 1019 30.09 848 25.04 1.7 35 28 -15.1 4.7
12:35 1019 30.09 848 25.04 1.9 35.4 28 -14.9 5.2
12:40 1019 30.09 848 25.04 1.9 35.5 29 -14.4 6
12:45 1019 30.09 848 25.04 2.5 36.4 28 -14.3 6.3
12:50 1019 30.09 848 25.04 3.4 38.2 25 -14.6 5.7
12:55 1018 30.06 848 25.04 3.9 38.9 24 -14.9 5.1
13:00 1018 30.06 848 25.04 3.2 37.8 26 -14.7 5.6
13:05 1018 30.06 848 25.04 3.1 37.6 26 -14.5 5.9
13:10 1018 30.06 848 25.04 3.2 37.7 26 -14.5 5.9
13:15 1018 30.06 848 25.04 3.4 38.1 25 -14.8 5.4
13:20 1018 30.06 847 25.01 3.4 38.1 26 -14.7 5.6
13:25 1018 30.06 847 25.01 3.5 38.2 26 -14.5 5.9
13:30 1018 30.06 847 25.01 3.9 38.9 24 -15.2 4.7
13:35 1018 30.06 847 25.01 3.7 38.7 24 -14.9 5.3
13:40 1018 30.06 847 25.01 3 37.5 26 -14.7 5.5
13:45 1018 30.06 847 25.01 3.2 37.8 28 -13.8 7.2
13:50 1018 30.06 847 25.01 4 39.1 25 -14.5 5.9
13:55 1018 30.06 847 25.01 3.5 38.3 26 -14.3 6.3
14:00 1018 30.06 847 25.01 3.4 38.1 25 -15 5.1
14:05 1018 30.06 847 25.01 3.5 38.2 27 -14.1 6.7
14:10 1018 30.06 847 25.01 3.2 37.7 29 -13.1 8.4
14:15 1018 30.06 847 25.01 3 37.3 29 -13.6 7.4
14:20 1018 30.06 847 25.01 2.7 36.8 32 -12.6 9.3
14:25 1018 30.06 847 25.01 2.5 36.4 33 -12.3 9.9
14:30 1018 30.06 847 25.01 1.7 35.1 41 -10.3 13.5
14:35 1018 30.06 847 25.01 1 33.9 42 -10.5 13.2
14:40 1018 30.06 847 25.01 1.2 34.2 38 -11.5 11.2
14:45 1018 30.06 847 25.01 1.3 34.4 42 -10.2 13.6
14:50 1018 30.06 847 25.01 1.2 34.2 39 -11.2 11.9
14:55 1018 30.06 847 25.01 1.5 34.7 39 -11 12.3
15:00 1018 30.06 847 25.01 1.4 34.6 39 -11 12.2
15:05 1018 30.06 847 25.01 1 33.8 45 -9.6 14.7
15:10 1018 30.06 847 25.01 0.3 32.6 49 -9.2 15.5
15:15 1018 30.06 847 25.01 0.5 32.8 48 -9.4 15
15:20 1018 30.06 847 25.01 0.7 33.2 47 -9.3 15.2
15:25 1018 30.06 847 25.01 1 33.7 45 -9.7 14.6
15:30 1018 30.06 847 25.01 0.6 33.2 45 -10 14
15:35 1018 30.06 847 25.01 0.5 32.8 47 -9.6 14.7
15:40 1018 30.06 847 25.01 0.9 33.5 45 -9.9 14.3
15:45 1018 30.06 847 25.01 0.9 33.7 44 -9.9 14.2
15:50 1018 30.06 847 25.01 1.1 34 42 -10.3 13.5
15:55 1018 30.06 847 25.01 0.6 33.2 42 -10.7 12.7
16:00 1018 30.06 847 25.01 0.8 33.4 43 -10.5 13.1
16:05 1018 30.06 847 25.01 0.7 33.3 47 -9.2 15.4
16:10 1018 30.06 847 25.01 0.7 33.2 49 -8.7 16.3
16:15 1018 30.06 847 25.01 1.1 34 42 -10.3 13.4
16:20 1018 30.06 847 25.01 1.1 33.9 46 -9.3 15.2
16:25 1018 30.06 847 25.01 1.5 34.7 48 -8.4 16.8
16:30 1017 30.03 847 25.01 1.8 35.2 44 -9.3 15.3
16:35 1017 30.03 847 25.01 1.6 35 41 -10.3 13.4
16:40 1017 30.03 847 25.01 1.5 34.7 43 -9.9 14.2
16:45 1017 30.03 847 25.01 1.3 34.3 46 -9.1 15.7
16:50 1017 30.03 847 25.01 1.4 34.5 39 -11 12.1
16:55 1017 30.03 847 25.01 1.3 34.4 47 -8.9 16
17:00 1017 30.03 847 25.01 1.2 34.1 47 -8.9 15.9
17:05 1017 30.03 847 25.01 1.1 34 44 -9.8 14.4
17:10 1017 30.03 847 25.01 1.3 34.3 42 -10.1 13.8
17:15 1017 30.03 847 25.01 1.4 34.5 41 -10.4 13.2
17:20 1017 30.03 847 25.01 1.4 34.5 40 -10.8 12.5
17:25 1017 30.03 847 25.01 1.6 34.8 40 -10.7 12.8
17:30 1017 30.03 847 25.01 1.6 35 38 -11.2 11.8
17:35 1017 30.03 847 25.01 1.5 34.7 41 -10.5 13.1
17:40 1017 30.03 847 25.01 1.3 34.4 44 -9.7 14.6
17:45 1018 30.06 847 25.01 1.2 34.2 45 -9.5 14.9
17:50 1018 30.06 847 25.01 1.1 34.1 44 -9.8 14.4
17:55 1018 30.06 847 25.01 1.1 34 44 -10 14.1
18:00 1018 30.06 847 25.01 1 33.8 42 -10.5 13.1
18:05 1018 30.06 847 25.01 1 33.7 42 -10.5 13
18:10 1018 30.06 847 25.01 0.8 33.5 43 -10.5 13.1
18:15 1018 30.06 847 25.01 0.8 33.4 42 -10.8 12.6
18:20 1018 30.06 847 25.01 0.7 33.2 43 -10.7 12.8
18:25 1018 30.06 847 25.01 0.6 33 42 -10.8 12.5
18:30 1018 30.06 847 25.01 0.5 32.9 43 -10.8 12.5
18:35 1018 30.06 847 25.01 0.4 32.7 43 -10.7 12.7
18:40 1017 30.03 847 25.01 0.4 32.7 43 -10.9 12.4
18:45 1017 30.03 847 25.01 0.5 32.8 43 -10.9 12.4
18:50 1017 30.03 847 25.01 0.4 32.7 44 -10.5 13.1
18:55 1017 30.03 847 25.01 0.3 32.6 43 -10.7 12.8
19:00 1017 30.03 847 25.01 0.2 32.4 44 -10.6 12.9
19:05 1017 30.03 847 25.01 0.3 32.5 43 -10.9 12.4
19:10 1017 30.03 847 25.01 0.2 32.4 46 -10.1 13.7
19:15 1017 30.03 847 25.01 0.1 32.2 48 -9.7 14.5
19:20 1017 30.03 847 25.01 -0.1 31.9 49 -9.4 15
19:25 1017 30.03 847 25.01 -0.2 31.7 51 -9.1 15.6
19:30 1017 30.03 847 25.01 -0.3 31.5 53 -8.6 16.5
19:35 1017 30.03 847 25.01 -0.3 31.5 55 -8.4 16.9
19:40 1017 30.03 847 25.01 -0.3 31.5 56 -8 17.7
19:45 1017 30.03 847 25.01 -0.2 31.6 57 -7.9 17.8
19:50 1017 30.03 847 25.01 -0.3 31.4 56 -8.2 17.3
19:55 1018 30.06 847 25.01 -0.3 31.4 55 -8.4 16.9
20:00 1018 30.06 847 25.01 -0.5 31.2 55 -8.3 17
20:05 1018 30.06 847 25.01 -0.6 30.9 57 -8.2 17.2
20:10 1018 30.06 847 25.01 -0.8 30.6 57 -8.3 17.1
20:15 1018 30.06 847 25.01 -1 30.3 58 -8.2 17.2
20:20 1018 30.06 847 25.01 -1.1 29.9 58 -8.3 17.1
20:25 1018 30.06 847 25.01 -1.1 30 57 -8.5 16.8
20:30 1018 30.06 847 25.01 -0.9 30.4 57 -8.4 16.8
20:35 1018 30.06 847 25.01 -0.9 30.4 57 -8.4 16.9
20:40 1018 30.06 847 25.01 -0.8 30.5 57 -8.3 17
20:45 1018 30.06 847 25.01 -0.9 30.4 59 -7.9 17.8
20:50 1018 30.06 847 25.01 -0.6 30.9 52 -9.2 15.4
20:55 1018 30.06 847 25.01 -0.1 31.8 50 -9.2 15.4
21:00 1018 30.06 847 25.01 0.1 32.2 48 -9.7 14.5
21:05 1018 30.06 847 25.01 -0 31.9 54 -8.2 17.3
21:10 1018 30.06 847 25.01 -0.4 31.2 56 -8.1 17.3
21:15 1018 30.06 847 25.01 -0.6 31 57 -8.1 17.4
21:20 1018 30.06 847 25.01 -0.7 30.8 58 -7.9 17.8
21:25 1018 30.06 847 25.01 -0.7 30.8 58 -8 17.6
21:30 1018 30.06 847 25.01 -0.7 30.8 58 -8 17.7
21:35 1018 30.06 847 25.01 -0.6 30.9 55 -8.5 16.6
21:40 1018 30.06 848 25.04 -0.5 31.2 55 -8.5 16.7
21:45 1018 30.06 848 25.04 -0.4 31.2 56 -8.3 17.1
21:50 1019 30.09 848 25.04 -0.7 30.8 60 -7.5 18.5
21:55 1019 30.09 848 25.04 -0.9 30.3 61 -7.5 18.5
22:00 1019 30.09 848 25.04 -1 30.2 65 -6.8 19.8
22:05 1019 30.09 848 25.04 -1.4 29.4 71 -6 21.2
22:10 1019 30.09 848 25.04 -2.2 28 80 -5.2 22.6
22:15 1019 30.09 848 25.04 -2.6 27.3 84 -5 23
22:20 1019 30.09 848 25.04 -3 26.6 87 -4.8 23.3
22:25 1019 30.09 848 25.04 -3.1 26.4 88 -4.9 23.3
22:30 1019 30.09 848 25.04 -3.2 26.3 88 -4.8 23.3
22:35 1019 30.09 848 25.04 -3.2 26.3 88 -4.9 23.1
22:40 1019 30.09 848 25.04 -3.1 26.3 88 -4.9 23.2
22:45 1019 30.09 848 25.04 -3.1 26.4 88 -4.9 23.2
22:50 1019 30.09 848 25.04 -3.1 26.5 87 -4.9 23.1
22:55 1019 30.09 848 25.04 -3 26.6 87 -4.9 23.1
23:00 1019 30.09 848 25.04 -3.1 26.4 87 -4.9 23.2
23:05 1019 30.09 848 25.04 -3.1 26.3 88 -4.9 23.2
23:10 1019 30.09 848 25.04 -3.1 26.5 88 -4.8 23.4
23:15 1019 30.09 848 25.04 -3 26.5 88 -4.7 23.5
23:20 1019 30.09 848 25.04 -3.1 26.5 89 -4.7 23.6
23:25 1019 30.09 848 25.04 -3.1 26.5 88 -4.8 23.4
23:30 1019 30.09 848 25.04 -2.9 26.8 87 -4.7 23.6
23:35 1019 30.09 848 25.04 -2.8 26.9 88 -4.5 23.9
23:40 1019 30.09 848 25.04 -2.6 27.4 87 -4.5 23.9
23:45 1019 30.09 848 25.04 -2.5 27.4 87 -4.4 24
23:50 1019 30.09 848 25.04 -2.6 27.3 86 -4.6 23.7
23:55 1019 30.09 848 25.04 -2.6 27.3 87 -4.5 23.9
24:00 1019 30.09 848 25.04 -2.6 27.2 86 -4.7 23.6